This is the latest recevied weather packets stored in our database for station/object YO8PIC-4. If no packets are shown the sender has not sent any weather packets the latest 10 day(s).
| Time | Temp. | Humidity | Pressure | Rain* | Wind** | Luminosity | Snow |
|---|---|---|---|---|---|---|---|
| 1777890190 | 25.56° C | 50% | 1012.8 hPa | - | - | - | - |
| 1777889589 | 26.11° C | 48% | 1012.9 hPa | - | - | - | - |
| 1777888989 | 26.11° C | 48% | 1012.7 hPa | - | - | - | - |
| 1777888389 | 25.56° C | 50% | 1013 hPa | - | - | - | - |
| 1777887789 | 25.56° C | 49% | 1013.1 hPa | - | - | - | - |
| 1777887189 | 26.11° C | 48% | 1013.2 hPa | - | - | - | - |
| 1777886589 | 26.11° C | 48% | 1013.3 hPa | - | - | - | - |
| 1777885989 | 25.56° C | 49% | 1013.3 hPa | - | - | - | - |
| 1777885389 | 25.56° C | 49% | 1013.4 hPa | - | - | - | - |
| 1777884788 | 25.56° C | 50% | 1013.4 hPa | - | - | - | - |
| 1777884188 | 25.56° C | 49% | 1013.4 hPa | - | - | - | - |
| 1777883588 | 26.11° C | 49% | 1013.5 hPa | - | - | - | - |
| 1777882988 | 26.11° C | 48% | 1013.5 hPa | - | - | - | - |
| 1777882388 | 25.56° C | 50% | 1013.4 hPa | - | - | - | - |
| 1777881788 | 26.11° C | 47% | 1013.4 hPa | - | - | - | - |
| 1777881188 | 25.56° C | 48% | 1013.4 hPa | - | - | - | - |
| 1777880587 | 26.11° C | 46% | 1013.4 hPa | - | - | - | - |
| 1777879987 | 25.56° C | 48% | 1013.4 hPa | - | - | - | - |
| 1777879387 | 25.56° C | 49% | 1013.5 hPa | - | - | - | - |
| 1777878787 | 25° C | 50% | 1013.5 hPa | - | - | - | - |
| 1777878187 | 25° C | 49% | 1013.5 hPa | - | - | - | - |
| 1777877587 | 25.56° C | 46% | 1013.2 hPa | - | - | - | - |
| 1777876981 | 26.11° C | 47% | 1013.4 hPa | - | - | - | - |
| 1777876381 | 25° C | 49% | 1013.4 hPa | - | - | - | - |
| 1777875781 | 25.56° C | 47% | 1013.2 hPa | - | - | - | - |
* Rain since midnight (hover to see other rain measurements)
** Current wind speed in m/s (hover to see current wind gust speed)